Time;durP1;ratioP1;P1;durP2;ratioP2;P2;SDS_P1;SDS_P2;PMS_P1;PMS_P2;Temp;Humidity;BMP_temperature;BMP_pressure;BME280_temperature;BME280_humidity;BME280_pressure;Samples;Min_cycle;Max_cycle;Signal;HPM_P1;HPM_P2
2023/07/27 00:00:40;;;;;;;3.95;1.75;;;;;;;12.40;68.28;92891.09;2040780;70;20167;-87
2023/07/27 00:03:07;;;;;;;4.25;1.77;;;;;;;12.46;67.97;92897.84;2043944;70;20139;-87
2023/07/27 00:05:32;;;;;;;3.85;2.05;;;;;;;12.40;68.09;92899.56;2041350;70;20146;-89
2023/07/27 00:07:58;;;;;;;5.38;1.90;;;;;;;12.43;68.60;92904.72;2041432;70;20182;-88
2023/07/27 00:10:24;;;;;;;4.95;1.95;;;;;;;12.34;67.71;92905.59;2041485;70;20158;-89
2023/07/27 00:12:50;;;;;;;3.53;1.83;;;;;;;12.29;68.81;92906.00;2041573;70;20573;-88
2023/07/27 00:15:16;;;;;;;3.95;1.80;;;;;;;12.26;68.93;92910.06;2041356;70;20139;-88
2023/07/27 00:17:43;;;;;;;6.20;1.80;;;;;;;12.27;68.29;92915.06;2041434;70;20166;-89
2023/07/27 00:20:09;;;;;;;3.08;1.85;;;;;;;12.29;68.23;92920.13;2042685;70;20609;-88
2023/07/27 00:22:34;;;;;;;3.75;1.70;;;;;;;12.17;68.29;92909.56;2038433;70;20147;-88
2023/07/27 00:25:00;;;;;;;4.53;1.60;;;;;;;12.30;68.29;92915.94;2042943;70;20162;-88
2023/07/27 00:27:26;;;;;;;3.35;1.90;;;;;;;12.27;68.37;92914.34;2042377;70;20585;-88
2023/07/27 00:29:51;;;;;;;3.88;1.80;;;;;;;12.27;67.68;92909.41;2042396;70;20249;-89
2023/07/27 00:32:17;;;;;;;3.13;1.90;;;;;;;12.22;67.73;92921.84;2042190;70;20191;-89
2023/07/27 00:34:42;;;;;;;4.15;2.10;;;;;;;12.20;67.79;92914.00;2042266;70;20166;-89
2023/07/27 00:37:09;;;;;;;5.25;1.83;;;;;;;12.30;68.31;92927.22;2042549;70;20205;-89
2023/07/27 00:39:35;;;;;;;3.90;1.90;;;;;;;12.22;68.64;92919.00;2042242;70;20143;-88
2023/07/27 00:42:01;;;;;;;3.13;2.05;;;;;;;12.16;68.51;92916.56;2043251;70;20158;-89
2023/07/27 00:44:29;;;;;;;2.85;1.90;;;;;;;12.27;67.72;92911.50;2046078;70;20143;-89
2023/07/27 00:46:55;;;;;;;2.70;2.00;;;;;;;12.11;68.44;92928.25;2044766;70;20151;-88
2023/07/27 00:49:21;;;;;;;5.70;2.40;;;;;;;11.79;69.76;92933.41;2040925;70;20243;-88
2023/07/27 00:51:47;;;;;;;5.97;2.33;;;;;;;11.74;70.67;92923.25;2035076;70;20230;-88
2023/07/27 00:54:14;;;;;;;5.57;2.20;;;;;;;11.94;70.24;92930.09;2041481;70;20148;-88
2023/07/27 00:56:41;;;;;;;5.90;1.92;;;;;;;11.97;70.40;92925.31;2044087;70;20223;-88
2023/07/27 00:59:07;;;;;;;4.80;2.03;;;;;;;12.06;69.95;92929.38;2042580;70;20315;-88
2023/07/27 01:01:36;;;;;;;2.95;1.88;;;;;;;12.14;69.55;92929.81;2043807;70;20171;-87
2023/07/27 01:04:02;;;;;;;3.38;1.88;;;;;;;12.12;69.99;92927.63;2042515;70;20274;-87
2023/07/27 01:06:29;;;;;;;7.32;1.90;;;;;;;12.14;70.55;92929.81;2036592;70;20203;-89
2023/07/27 01:08:55;;;;;;;3.40;1.80;;;;;;;12.04;70.22;92927.13;2038899;70;20210;-89
2023/07/27 01:11:45;;;;;;;3.83;2.00;;;;;;;12.15;70.13;92928.50;2041943;70;20155;-86
2023/07/27 01:14:48;;;;;;;2.08;1.60;;;;;;;12.09;70.37;92916.81;2042181;70;20191;-87
2023/07/27 01:17:26;;;;;;;2.63;1.80;;;;;;;12.14;70.21;92913.66;2041583;70;20610;-88
2023/07/27 01:20:24;;;;;;;7.25;2.00;;;;;;;12.11;69.97;92914.13;2038846;70;20613;-89
2023/07/27 01:23:42;;;;;;;5.25;2.38;;;;;;;11.75;71.99;92915.50;2038778;70;20154;-89
2023/07/27 01:26:28;;;;;;;3.25;1.73;;;;;;;11.83;72.03;92916.75;2031441;70;20632;-88
2023/07/27 01:29:03;;;;;;;4.68;2.25;;;;;;;11.81;71.46;92904.56;2035742;70;20239;-90
2023/07/27 01:31:41;;;;;;;3.33;1.90;;;;;;;11.82;71.16;92908.88;2038422;70;20334;-91
2023/07/27 01:34:31;;;;;;;2.65;1.90;;;;;;;11.86;70.73;92906.31;2041672;70;20143;-88
2023/07/27 01:37:01;;;;;;;5.38;2.00;;;;;;;11.80;70.91;92909.47;2041553;70;20270;-88
2023/07/27 01:39:30;;;;;;;4.55;2.03;;;;;;;11.71;70.46;92887.78;2038369;70;20660;-88
2023/07/27 01:41:58;;;;;;;3.35;2.28;;;;;;;11.65;71.29;92905.09;2041287;70;20159;-87
2023/07/27 01:44:26;;;;;;;4.22;2.20;;;;;;;11.66;70.39;92894.53;2041560;70;20159;-87
2023/07/27 01:46:54;;;;;;;5.60;1.90;;;;;;;11.64;71.04;92898.00;2038316;70;20250;-89
2023/07/27 01:49:21;;;;;;;2.72;1.98;;;;;;;11.56;71.14;92886.22;2038512;70;20174;-88
2023/07/27 01:51:49;;;;;;;4.88;2.05;;;;;;;11.68;70.16;92895.41;2041790;70;20178;-88
2023/07/27 01:54:18;;;;;;;5.45;2.17;;;;;;;11.57;71.42;92892.59;2038348;70;20143;-88
2023/07/27 01:56:45;;;;;;;5.43;2.15;;;;;;;11.45;71.88;92893.34;2041458;70;20151;-87
2023/07/27 01:59:12;;;;;;;3.20;1.85;;;;;;;11.53;71.07;92893.06;2038129;70;20146;-87
2023/07/27 02:01:38;;;;;;;4.95;2.30;;;;;;;11.51;70.01;92869.69;2038347;70;20139;-88
2023/07/27 02:04:05;;;;;;;5.70;1.90;;;;;;;11.52;70.76;92874.69;2041230;70;20605;-87
2023/07/27 02:06:31;;;;;;;7.95;2.05;;;;;;;11.50;70.50;92885.84;2039589;70;20179;-89
2023/07/27 02:08:56;;;;;;;5.00;2.00;;;;;;;11.37;70.92;92873.09;2041481;70;20587;-88
2023/07/27 02:11:24;;;;;;;7.00;2.20;;;;;;;11.18;72.13;92881.81;2045313;70;20182;-87
2023/07/27 02:14:18;;;;;;;4.22;2.08;;;;;;;11.27;71.83;92880.94;2044683;70;20254;-88
2023/07/27 02:16:56;;;;;;;3.58;1.90;;;;;;;11.27;71.46;92877.38;2042281;70;20154;-88
2023/07/27 02:19:32;;;;;;;4.93;2.30;;;;;;;11.20;71.43;92877.00;2042212;70;20158;-88
2023/07/27 02:22:00;;;;;;;3.30;2.25;;;;;;;11.20;71.33;92865.75;2042384;70;20234;-88
2023/07/27 02:24:29;;;;;;;3.65;1.92;;;;;;;11.06;71.02;92847.25;2045967;70;20143;-87
2023/07/27 02:26:58;;;;;;;4.32;2.88;;;;;;;11.09;70.54;92840.41;2042586;70;20143;-88
2023/07/27 02:29:28;;;;;;;3.53;1.98;;;;;;;10.95;71.76;92834.63;2045240;70;20687;-88
2023/07/27 02:31:58;;;;;;;5.80;1.95;;;;;;;11.18;71.43;92867.72;2041583;70;20159;-88
2023/07/27 02:34:29;;;;;;;4.82;2.17;;;;;;;11.09;72.00;92862.94;2044894;70;20194;-89
2023/07/27 02:36:56;;;;;;;3.92;2.47;;;;;;;10.91;72.68;92860.47;2041729;70;20169;-88
2023/07/27 02:39:27;;;;;;;6.10;2.55;;;;;;;10.99;72.09;92851.00;2041411;70;20218;-88
2023/07/27 02:41:58;;;;;;;5.95;2.80;;;;;;;10.96;72.38;92855.81;2041811;70;20194;-87
2023/07/27 02:44:31;;;;;;;5.15;2.13;;;;;;;10.68;72.91;92815.38;2045253;70;20174;-87
2023/07/27 02:46:59;;;;;;;10.32;2.45;;;;;;;10.90;72.14;92859.00;2046216;70;20175;-87
2023/07/27 02:49:29;;;;;;;5.73;2.37;;;;;;;10.71;72.22;92825.38;2046885;70;20290;-88
2023/07/27 02:51:58;;;;;;;4.65;2.38;;;;;;;10.72;72.88;92831.75;2045941;70;20155;-89
2023/07/27 02:54:24;;;;;;;6.18;2.38;;;;;;;10.76;73.21;92857.34;2043396;70;20217;-89
2023/07/27 02:56:51;;;;;;;3.03;2.20;;;;;;;10.43;73.25;92796.94;2047762;70;20625;-88
2023/07/27 02:59:29;;;;;;;5.68;2.25;;;;;;;10.65;72.68;92820.13;2047791;70;20151;-89
2023/07/27 03:01:55;;;;;;;5.95;2.30;;;;;;;10.87;71.97;92842.56;2046294;70;20147;-88
2023/07/27 03:04:26;;;;;;;3.85;2.28;;;;;;;10.77;72.58;92847.56;2042978;70;20192;-89
2023/07/27 03:06:58;;;;;;;3.95;2.40;;;;;;;10.50;75.36;92845.19;2047774;70;20186;-86
2023/07/27 03:09:25;;;;;;;4.30;2.58;;;;;;;10.50;73.98;92842.38;2041913;70;20230;-88
2023/07/27 03:11:51;;;;;;;4.25;2.50;;;;;;;10.50;73.35;92826.22;2041812;70;20597;-88
2023/07/27 03:14:17;;;;;;;5.47;2.22;;;;;;;10.73;72.23;92845.25;2041550;70;20940;-88
2023/07/27 03:16:42;;;;;;;3.83;2.22;;;;;;;10.61;73.00;92838.84;2045595;70;20163;-89
2023/07/27 03:19:08;;;;;;;3.58;2.17;;;;;;;10.61;73.36;92850.09;2042967;70;20605;-89
2023/07/27 03:21:34;;;;;;;4.38;2.20;;;;;;;10.57;73.39;92849.84;2044965;70;20183;-89
2023/07/27 03:24:00;;;;;;;5.25;2.30;;;;;;;10.58;72.52;92852.06;2041946;70;20257;-88
2023/07/27 03:26:25;;;;;;;6.68;2.22;;;;;;;10.62;72.42;92857.19;2039353;70;20661;-88
2023/07/27 03:28:53;;;;;;;8.85;2.65;;;;;;;10.35;73.55;92849.16;2048530;70;20253;-89
2023/07/27 03:31:20;;;;;;;5.20;2.60;;;;;;;10.47;73.17;92849.22;2047791;70;20585;-89
2023/07/27 03:33:47;;;;;;;5.90;2.40;;;;;;;10.37;73.26;92863.38;2046079;70;20242;-89
2023/07/27 03:36:17;;;;;;;8.52;2.60;;;;;;;10.37;73.43;92852.13;2045339;70;20233;-90
2023/07/27 03:38:43;;;;;;;4.75;2.25;;;;;;;10.48;71.98;92853.50;2042538;70;20282;-90
2023/07/27 03:41:12;;;;;;;4.60;2.40;;;;;;;10.30;73.30;92853.06;2043366;70;20545;-90
2023/07/27 03:43:38;;;;;;;6.57;2.60;;;;;;;10.40;73.10;92859.31;2043609;70;20611;-90
2023/07/27 03:46:04;;;;;;;4.93;2.30;;;;;;;10.29;73.55;92860.03;2038450;70;20147;-90
2023/07/27 03:48:30;;;;;;;9.95;2.65;;;;;;;10.35;73.01;92860.41;2041600;70;20127;-91
2023/07/27 03:50:59;;;;;;;9.68;2.70;;;;;;;10.31;73.36;92855.28;2035747;70;20238;-90
2023/07/27 03:53:25;;;;;;;3.55;2.25;;;;;;;10.41;72.31;92869.25;2041620;70;20229;-90
2023/07/27 03:55:51;;;;;;;4.82;1.90;;;;;;;10.35;72.48;92863.97;2041045;70;20580;-90
2023/07/27 03:58:16;;;;;;;5.25;2.38;;;;;;;10.39;72.59;92864.22;2038348;70;20155;-90
2023/07/27 04:00:42;;;;;;;5.18;2.20;;;;;;;10.41;72.30;92853.09;2041583;70;20218;-90
2023/07/27 04:03:08;;;;;;;4.55;2.78;;;;;;;10.45;72.48;92857.53;2038147;70;20151;-90
2023/07/27 04:05:33;;;;;;;3.90;2.80;;;;;;;10.41;73.23;92850.28;2041766;70;20151;-90
2023/07/27 04:07:59;;;;;;;4.90;2.70;;;;;;;10.41;72.89;92860.81;2038387;70;20668;-90
2023/07/27 04:10:24;;;;;;;7.32;2.60;;;;;;;10.36;73.01;92850.66;2038263;70;20149;-91
2023/07/27 04:12:51;;;;;;;3.85;2.20;;;;;;;10.36;73.55;92854.19;2038260;70;20149;-89
2023/07/27 04:15:17;;;;;;;5.03;2.30;;;;;;;10.41;73.27;92850.28;2041735;70;20146;-89
2023/07/27 04:17:43;;;;;;;4.53;2.90;;;;;;;10.23;74.60;92860.34;2041496;70;20299;-90
2023/07/27 04:20:10;;;;;;;10.35;2.72;;;;;;;10.15;74.79;92854.19;2041533;70;20242;-90
2023/07/27 04:22:35;;;;;;;4.25;2.70;;;;;;;10.29;73.99;92857.22;2041636;70;20182;-89
2023/07/27 04:25:01;;;;;;;4.40;2.53;;;;;;;10.43;73.01;92867.28;2041571;70;20246;-90
2023/07/27 04:27:27;;;;;;;3.65;2.30;;;;;;;10.51;72.96;92867.09;2038222;70;20562;-91
2023/07/27 04:29:53;;;;;;;6.90;2.45;;;;;;;10.51;73.17;92863.53;2041622;70;20151;-90
2023/07/27 04:32:18;;;;;;;8.25;2.97;;;;;;;10.35;73.67;92863.97;2038153;70;20625;-90
2023/07/27 04:34:44;;;;;;;6.25;2.72;;;;;;;10.53;73.29;92858.75;2041468;70;20207;-90
2023/07/27 04:37:09;;;;;;;5.50;2.80;;;;;;;10.56;72.84;92860.38;2041778;70;20162;-90
2023/07/27 04:39:35;;;;;;;4.00;2.55;;;;;;;10.63;72.98;92847.44;2040272;70;20143;-90
2023/07/27 04:42:01;;;;;;;10.20;2.90;;;;;;;10.60;74.21;92857.09;2041621;70;20136;-89
2023/07/27 04:44:27;;;;;;;6.70;2.88;;;;;;;10.64;73.59;92855.25;2041594;70;20147;-90
2023/07/27 04:46:53;;;;;;;4.47;2.50;;;;;;;10.75;73.40;92865.06;2041508;70;20150;-90
2023/07/27 04:49:19;;;;;;;7.18;2.80;;;;;;;10.73;73.88;92859.31;2041790;70;20182;-91
2023/07/27 04:51:45;;;;;;;9.57;3.03;;;;;;;10.79;72.70;92862.50;2041529;70;20211;-90
2023/07/27 04:54:11;;;;;;;5.35;2.58;;;;;;;10.89;71.90;92865.22;2041757;70;20131;-90
2023/07/27 04:56:36;;;;;;;8.88;3.22;;;;;;;10.94;72.77;92866.94;2041783;70;20148;-90
2023/07/27 04:59:02;;;;;;;7.00;2.85;;;;;;;11.01;72.77;92874.44;2040190;70;20163;-90
2023/07/27 05:01:28;;;;;;;8.25;3.30;;;;;;;11.00;72.71;92872.97;2041390;70;20166;-90
2023/07/27 05:03:53;;;;;;;5.57;2.72;;;;;;;11.00;73.15;92867.31;2045095;70;20233;-90
2023/07/27 05:06:20;;;;;;;3.95;2.47;;;;;;;11.00;72.93;92864.50;2043542;70;20657;-90
2023/07/27 05:08:46;;;;;;;6.57;3.00;;;;;;;10.94;73.78;92862.03;2043699;70;20173;-90
2023/07/27 05:11:12;;;;;;;9.00;4.85;;;;;;;10.69;74.65;92847.81;2044386;70;20644;-90
2023/07/27 05:13:37;;;;;;;7.47;4.10;;;;;;;11.17;73.81;92860.59;2044352;70;20542;-90
2023/07/27 05:16:03;;;;;;;10.63;4.20;;;;;;;11.35;73.25;92855.31;2043541;70;20154;-90
2023/07/27 05:18:29;;;;;;;7.18;3.88;;;;;;;11.49;73.24;92852.63;2040677;70;20155;-90
2023/07/27 05:20:58;;;;;;;7.57;3.20;;;;;;;11.52;72.24;92852.13;2043849;70;20139;-90
2023/07/27 05:23:23;;;;;;;6.78;3.40;;;;;;;11.35;72.95;92855.31;2043580;70;20150;-90
2023/07/27 05:25:49;;;;;;;5.10;3.13;;;;;;;11.63;72.68;92845.00;2043850;70;20159;-90
2023/07/27 05:28:15;;;;;;;4.57;3.00;;;;;;;11.80;72.04;92857.97;2044918;70;20147;-89
2023/07/27 05:30:41;;;;;;;6.93;3.08;;;;;;;11.78;72.12;92857.88;2042025;70;20566;-89
2023/07/27 05:33:07;;;;;;;6.70;2.97;;;;;;;11.97;71.84;92854.06;2040413;70;20179;-91
2023/07/27 05:35:32;;;;;;;5.18;3.30;;;;;;;12.05;70.26;92826.28;2047084;70;20182;-90
2023/07/27 05:37:58;;;;;;;4.72;3.20;;;;;;;12.21;70.71;92839.25;2044582;70;20529;-90
2023/07/27 05:40:24;;;;;;;6.30;3.08;;;;;;;12.29;69.52;92836.16;2043665;70;20112;-90
2023/07/27 05:42:50;;;;;;;4.65;3.03;;;;;;;12.34;70.90;92835.03;2046451;70;20151;-90
2023/07/27 05:45:15;;;;;;;5.82;2.60;;;;;;;12.49;70.55;92841.47;2044360;70;20128;-90
2023/07/27 05:47:41;;;;;;;5.35;2.70;;;;;;;12.22;68.72;92825.88;2042820;70;20175;-89
2023/07/27 05:50:08;;;;;;;4.57;3.13;;;;;;;12.38;67.64;92835.25;2044152;70;20167;-89
2023/07/27 05:52:37;;;;;;;6.60;3.50;;;;;;;12.21;69.00;92833.59;2040524;70;20151;-85
2023/07/27 05:55:05;;;;;;;8.30;3.20;;;;;;;12.60;67.16;92840.66;2043157;70;20246;-89
2023/07/27 05:57:31;;;;;;;5.65;3.13;;;;;;;12.88;67.06;92836.59;2043595;70;20159;-90
2023/07/27 05:59:57;;;;;;;4.95;2.90;;;;;;;13.13;65.82;92852.03;2046408;70;20613;-90
2023/07/27 06:02:23;;;;;;;6.93;3.17;;;;;;;13.21;66.29;92847.56;2043705;70;20170;-90
2023/07/27 06:04:49;;;;;;;4.57;3.00;;;;;;;12.84;65.45;92825.06;2049844;70;20214;-88
2023/07/27 06:07:15;;;;;;;8.50;2.85;;;;;;;13.09;65.34;92826.38;2045503;70;20208;-89
2023/07/27 06:09:40;;;;;;;5.25;3.25;;;;;;;13.32;65.98;92831.88;2047691;70;20187;-89
2023/07/27 06:12:11;;;;;;;4.03;2.72;;;;;;;13.37;65.53;92827.16;2046601;70;20147;-90
2023/07/27 06:14:40;;;;;;;6.53;2.65;;;;;;;13.40;62.77;92832.31;2046942;70;20206;-88
2023/07/27 06:17:06;;;;;;;5.60;2.85;;;;;;;13.55;63.48;92825.28;2047565;70;20142;-89
2023/07/27 06:19:32;;;;;;;4.05;2.85;;;;;;;13.36;63.33;92815.13;2043359;70;20147;-91
2023/07/27 06:21:59;;;;;;;6.55;3.17;;;;;;;13.55;62.68;92825.28;2044474;70;20143;-89
2023/07/27 06:24:26;;;;;;;4.45;2.88;;;;;;;13.62;63.17;92812.22;2047779;70;20264;-90
2023/07/27 06:26:52;;;;;;;6.03;2.92;;;;;;;14.01;61.94;92826.19;2044420;70;20318;-89
2023/07/27 06:29:18;;;;;;;5.85;3.10;;;;;;;14.10;62.23;92818.84;2047189;70;20147;-89
2023/07/27 06:31:44;;;;;;;3.97;2.58;;;;;;;14.14;62.19;92824.72;2037697;70;20325;-89
2023/07/27 06:34:10;;;;;;;6.05;2.47;;;;;;;14.14;63.34;92814.13;2043046;70;20571;-88
2023/07/27 06:36:36;;;;;;;4.57;3.15;;;;;;;14.15;63.08;92807.09;2042405;70;20204;-88
2023/07/27 06:39:02;;;;;;;4.72;2.88;;;;;;;14.25;63.51;92798.38;2042366;70;20237;-88
2023/07/27 06:41:28;;;;;;;4.10;2.70;;;;;;;14.33;62.90;92812.19;2042112;70;20178;-92
2023/07/27 06:43:54;;;;;;;3.90;2.72;;;;;;;14.40;60.00;92823.19;2038918;70;20163;-87
2023/07/27 06:46:20;;;;;;;5.20;2.40;;;;;;;14.59;60.09;92805.00;2042036;70;20612;-89
2023/07/27 06:48:47;;;;;;;7.68;3.00;;;;;;;14.62;59.11;92803.00;2042236;70;20149;-87
2023/07/27 06:51:13;;;;;;;4.57;2.83;;;;;;;14.60;58.91;92817.78;2042079;70;20147;-88
2023/07/27 06:53:39;;;;;;;4.05;2.60;;;;;;;14.62;58.48;92808.66;2042862;70;20229;-89
2023/07/27 06:56:04;;;;;;;5.72;3.20;;;;;;;14.92;59.04;92804.41;2045958;70;20601;-87
2023/07/27 06:58:30;;;;;;;4.53;2.50;;;;;;;14.89;57.04;92814.19;2045059;70;20203;-88
2023/07/27 07:00:56;;;;;;;4.55;2.90;;;;;;;14.74;57.56;92806.38;2045401;70;20145;-88
2023/07/27 07:03:22;;;;;;;3.67;2.53;;;;;;;14.61;58.65;92795.84;2045657;70;20147;-88
2023/07/27 07:05:47;;;;;;;5.55;2.60;;;;;;;14.18;57.15;92790.94;2045382;70;20123;-89
2023/07/27 07:08:13;;;;;;;3.05;2.47;;;;;;;14.30;56.56;92788.72;2046122;70;20528;-88
2023/07/27 07:10:39;;;;;;;3.70;2.63;;;;;;;14.61;56.15;92793.75;2045532;70;20195;-88
2023/07/27 07:13:06;;;;;;;4.70;2.80;;;;;;;14.15;56.83;92778.03;2044091;70;20628;-89
2023/07/27 07:15:32;;;;;;;3.45;2.13;;;;;;;14.80;56.36;92789.69;2040142;70;20152;-88
2023/07/27 07:17:57;;;;;;;3.97;2.67;;;;;;;15.20;55.36;92793.63;2042667;70;20147;-88
2023/07/27 07:20:23;;;;;;;3.53;2.20;;;;;;;15.40;56.44;92793.09;2042414;70;20181;-89
2023/07/27 07:22:49;;;;;;;5.00;2.65;;;;;;;15.45;53.36;92794.72;2042959;70;20158;-89
2023/07/27 07:25:15;;;;;;;3.90;2.65;;;;;;;15.13;54.25;92797.56;2041267;70;20218;-85
2023/07/27 07:27:40;;;;;;;6.35;2.60;;;;;;;15.44;54.69;92790.41;2041738;70;20173;-84
2023/07/27 07:30:08;;;;;;;5.13;2.53;;;;;;;15.50;53.51;92780.06;2041399;70;20586;-84
2023/07/27 07:32:35;;;;;;;3.05;2.25;;;;;;;15.83;53.97;92777.94;2041354;70;20170;-84
2023/07/27 07:35:01;;;;;;;4.72;2.83;;;;;;;16.04;54.35;92780.25;2040929;70;20151;-85
2023/07/27 07:37:27;;;;;;;4.97;2.47;;;;;;;16.23;55.03;92787.44;2040479;70;20194;-84
2023/07/27 07:39:55;;;;;;;3.80;2.80;;;;;;;16.23;55.32;92776.78;2040471;70;20189;-84
2023/07/27 07:42:22;;;;;;;3.50;2.63;;;;;;;15.50;54.94;92782.91;2037246;70;20154;-86
2023/07/27 07:44:47;;;;;;;4.82;2.60;;;;;;;15.64;54.56;92785.66;2040621;70;20148;-87
2023/07/27 07:47:13;;;;;;;4.00;2.65;;;;;;;15.67;54.81;92781.56;2040611;70;20197;-87
2023/07/27 07:49:38;;;;;;;7.63;2.92;;;;;;;15.93;54.26;92779.09;2041164;70;20175;-88
2023/07/27 07:52:05;;;;;;;5.75;2.95;;;;;;;15.87;53.86;92778.13;2041678;70;20533;-84
2023/07/27 07:54:31;;;;;;;3.33;2.60;;;;;;;15.76;53.83;92776.97;2041371;70;20144;-83
2023/07/27 07:56:57;;;;;;;4.90;2.83;;;;;;;15.27;54.90;92771.97;2041595;70;20230;-86
2023/07/27 07:59:24;;;;;;;4.00;3.03;;;;;;;15.55;55.70;92766.06;2041655;70;20198;-83
2023/07/27 08:01:51;;;;;;;5.97;3.00;;;;;;;16.17;54.57;92764.44;2042150;70;20179;-87
2023/07/27 08:04:17;;;;;;;5.57;2.80;;;;;;;15.84;54.70;92771.59;2041839;70;20150;-84
2023/07/27 08:06:44;;;;;;;5.57;2.97;;;;;;;15.68;54.67;92765.97;2041757;70;20242;-88
2023/07/27 08:09:10;;;;;;;6.13;3.17;;;;;;;15.68;55.43;92757.47;2042047;70;20151;-82
2023/07/27 08:11:37;;;;;;;6.30;3.00;;;;;;;15.54;54.70;92753.28;2041711;70;20173;-82
2023/07/27 08:14:02;;;;;;;4.85;2.88;;;;;;;15.07;55.27;92757.59;2041634;70;20574;-86
2023/07/27 08:16:31;;;;;;;5.10;3.00;;;;;;;15.51;54.67;92747.50;2041894;70;20503;-87
2023/07/27 08:18:57;;;;;;;5.30;3.13;;;;;;;15.69;55.41;92738.34;2038802;70;20151;-81
2023/07/27 08:21:23;;;;;;;5.10;2.67;;;;;;;16.05;53.58;92738.41;2041809;70;20171;-88
2023/07/27 08:23:48;;;;;;;5.47;2.90;;;;;;;16.17;53.12;92738.88;2041457;70;20573;-82
2023/07/27 08:26:14;;;;;;;6.65;2.78;;;;;;;16.35;52.88;92741.72;2042081;70;20147;-87
2023/07/27 08:28:41;;;;;;;5.03;2.90;;;;;;;16.46;51.16;92732.97;2041944;70;20606;-85
2023/07/27 08:31:08;;;;;;;5.95;2.90;;;;;;;16.39;53.07;92730.53;2041814;70;20139;-85
2023/07/27 08:33:34;;;;;;;5.50;2.80;;;;;;;16.36;52.41;92721.22;2041381;70;20589;-84
2023/07/27 08:36:00;;;;;;;6.20;3.17;;;;;;;16.47;51.83;92730.84;2041588;70;20226;-85
2023/07/27 08:38:27;;;;;;;6.05;2.40;;;;;;;16.43;51.69;92722.91;2041703;70;20290;-87
2023/07/27 08:41:01;;;;;;;3.30;2.60;;;;;;;17.30;51.19;92724.03;2039425;70;20150;-87
2023/07/27 08:43:29;;;;;;;3.95;2.80;;;;;;;16.90;51.02;92727.56;2041974;70;20614;-88
2023/07/27 08:45:55;;;;;;;7.20;3.03;;;;;;;16.53;51.48;92726.13;2041718;70;20192;-87
2023/07/27 08:48:23;;;;;;;7.45;3.00;;;;;;;16.98;50.74;92727.88;2041384;70;20307;-83
2023/07/27 08:50:49;;;;;;;4.22;2.80;;;;;;;16.42;51.39;92724.28;2041705;70;20151;-87
2023/07/27 08:53:15;;;;;;;5.30;2.80;;;;;;;16.92;50.15;92713.44;2042386;70;20147;-86
2023/07/27 08:55:43;;;;;;;4.28;2.80;;;;;;;17.10;50.64;92710.53;2039065;70;20162;-89
2023/07/27 08:58:09;;;;;;;5.20;2.50;;;;;;;17.18;49.52;92713.69;2042322;70;20147;-85
2023/07/27 09:00:35;;;;;;;3.90;2.70;;;;;;;17.62;49.58;92710.97;2041889;70;20242;-81
2023/07/27 09:03:00;;;;;;;4.63;2.83;;;;;;;17.87;48.84;92706.88;2041920;70;20609;-82
2023/07/27 09:05:42;;;;;;;4.40;2.60;;;;;;;18.29;48.65;92710.41;2042041;70;20624;-85
2023/07/27 09:08:10;;;;;;;3.53;2.70;;;;;;;18.07;47.32;92698.28;2042122;70;20147;-81
2023/07/27 09:10:37;;;;;;;4.30;2.88;;;;;;;17.74;47.45;92707.84;2042150;70;20152;-83
2023/07/27 09:13:03;;;;;;;6.88;2.97;;;;;;;17.37;49.46;92706.53;2042111;70;20262;-86
2023/07/27 09:15:30;;;;;;;5.13;2.60;;;;;;;17.62;49.06;92696.00;2038661;70;20226;-86
2023/07/27 09:17:58;;;;;;;5.20;2.95;;;;;;;17.48;48.71;92691.28;2041846;70;20190;-83
2023/07/27 09:20:25;;;;;;;4.82;2.67;;;;;;;17.19;49.26;92691.66;2041812;70;20162;-85
2023/07/27 09:22:50;;;;;;;4.38;2.92;;;;;;;17.27;49.01;92692.69;2038518;70;20139;-84
2023/07/27 09:25:23;;;;;;;5.68;2.83;;;;;;;17.40;49.85;92685.28;2041925;70;20497;-81
2023/07/27 09:27:55;;;;;;;4.93;2.90;;;;;;;17.90;50.38;92687.72;2042003;70;20234;-82
2023/07/27 09:30:23;;;;;;;4.13;2.65;;;;;;;17.93;50.18;92678.59;2038744;70;20610;-88
2023/07/27 09:32:50;;;;;;;4.80;2.88;;;;;;;18.23;48.63;92689.53;2041920;70;20298;-81
2023/07/27 09:35:17;;;;;;;4.18;2.75;;;;;;;18.18;49.23;92682.97;2041788;70;20612;-82
2023/07/27 09:37:44;;;;;;;5.20;2.88;;;;;;;18.25;48.82;92686.75;2042235;70;20162;-85
2023/07/27 09:40:13;;;;;;;4.40;3.08;;;;;;;18.11;48.09;92686.28;2043897;70;20156;-89
2023/07/27 09:42:40;;;;;;;4.47;2.70;;;;;;;18.10;48.58;92665.63;2043013;70;20195;-85
2023/07/27 09:45:06;;;;;;;5.40;2.83;;;;;;;18.10;49.45;92677.03;2041812;70;20159;-82
2023/07/27 09:47:32;;;;;;;5.90;3.13;;;;;;;18.10;49.14;92682.72;2041753;70;20143;-89
2023/07/27 09:50:00;;;;;;;4.82;2.53;;;;;;;17.66;46.76;92681.91;2042061;70;20186;-85
2023/07/27 09:52:28;;;;;;;5.05;2.90;;;;;;;17.88;47.59;92676.28;2041910;70;20147;-83
2023/07/27 09:55:00;;;;;;;5.38;2.78;;;;;;;17.68;46.70;92673.44;2042174;70;20629;-87
2023/07/27 09:57:27;;;;;;;3.95;2.83;;;;;;;17.66;47.20;92665.56;2041788;70;20163;-86
2023/07/27 09:59:54;;;;;;;6.03;2.80;;;;;;;17.85;47.67;92666.94;2041756;70;20593;-84
2023/07/27 10:02:22;;;;;;;3.63;2.80;;;;;;;18.05;47.72;92658.31;2041466;70;20138;-83
2023/07/27 10:04:51;;;;;;;4.63;3.30;;;;;;;18.06;47.04;92665.50;2041722;70;20309;-82
2023/07/27 10:07:22;;;;;;;4.03;2.88;;;;;;;17.85;47.79;92657.66;2038593;70;20147;-85
2023/07/27 10:09:48;;;;;;;4.47;3.03;;;;;;;18.02;47.60;92665.34;2038656;70;20238;-82
2023/07/27 10:12:30;;;;;;;4.57;2.90;;;;;;;18.39;46.88;92652.28;2041839;70;20167;-85
2023/07/27 10:15:21;;;;;;;4.85;2.72;;;;;;;18.44;47.02;92663.13;2041753;70;20179;-80
2023/07/27 10:17:54;;;;;;;5.13;2.85;;;;;;;18.36;46.57;92645.78;2041562;70;20155;-84
2023/07/27 10:20:26;;;;;;;4.97;3.40;;;;;;;18.49;47.29;92656.16;2041711;70;20167;-83
2023/07/27 10:23:07;;;;;;;6.97;2.78;;;;;;;18.74;47.63;92656.94;2038549;70;20144;-80
2023/07/27 10:26:01;;;;;;;3.80;2.95;;;;;;;18.40;46.13;92654.44;2041870;70;20175;-83
2023/07/27 10:28:47;;;;;;;6.88;3.20;;;;;;;18.03;46.79;92641.91;2041766;70;20151;-81
2023/07/27 10:31:20;;;;;;;4.35;3.05;;;;;;;18.18;45.80;92643.06;2041632;70;20147;-82
2023/07/27 10:33:52;;;;;;;6.00;3.00;;;;;;;18.15;47.26;92633.03;2041560;70;20175;-85
2023/07/27 10:36:19;;;;;;;3.85;2.95;;;;;;;18.08;46.50;92636.34;2041879;70;20621;-87
2023/07/27 10:38:54;;;;;;;3.45;2.80;;;;;;;18.28;47.22;92634.16;2038713;70;20143;-84
2023/07/27 10:41:22;;;;;;;4.55;2.75;;;;;;;18.13;46.77;92629.38;2041691;70;20502;-86
2023/07/27 10:44:17;;;;;;;8.20;2.90;;;;;;;18.64;47.28;92625.22;2042655;70;20167;-88
2023/07/27 10:46:46;;;;;;;4.82;2.83;;;;;;;18.97;48.54;92626.94;2039632;70;20146;-88
2023/07/27 10:49:15;;;;;;;5.95;2.92;;;;;;;19.40;48.47;92620.28;2042063;70;20590;-83
2023/07/27 10:51:42;;;;;;;3.30;2.63;;;;;;;19.32;47.94;92619.34;2041873;70;20139;-86
2023/07/27 10:54:09;;;;;;;3.53;2.90;;;;;;;19.43;48.23;92609.66;2041461;70;20582;-83
2023/07/27 10:56:35;;;;;;;4.70;3.03;;;;;;;19.53;47.83;92621.34;2041527;70;20295;-86
2023/07/27 10:59:03;;;;;;;4.25;2.97;;;;;;;19.83;46.87;92618.56;2041647;70;20169;-87
2023/07/27 11:01:33;;;;;;;5.30;3.38;;;;;;;19.69;46.14;92609.63;2038177;70;20528;-84
2023/07/27 11:03:58;;;;;;;4.72;3.25;;;;;;;19.53;46.23;92610.66;2041407;70;20155;-86
2023/07/27 11:06:28;;;;;;;6.22;3.40;;;;;;;19.76;45.23;92606.25;2041618;70;20150;-87
2023/07/27 11:08:57;;;;;;;5.18;3.22;;;;;;;19.71;47.37;92609.69;2038351;70;20159;-85
2023/07/27 11:11:29;;;;;;;4.07;3.20;;;;;;;19.75;45.84;92604.81;2038590;70;20597;-84
2023/07/27 11:14:04;;;;;;;5.83;3.30;;;;;;;19.91;45.75;92593.06;2045020;70;20150;-85
2023/07/27 11:16:31;;;;;;;4.65;3.00;;;;;;;19.66;44.96;92597.44;2042482;70;20265;-86
2023/07/27 11:18:57;;;;;;;4.07;3.20;;;;;;;19.86;45.27;92587.91;2038723;70;20147;-90
2023/07/27 11:21:23;;;;;;;4.00;2.75;;;;;;;19.72;46.91;92589.03;2041880;70;20155;-90
2023/07/27 11:23:49;;;;;;;5.28;3.30;;;;;;;19.95;47.04;92593.16;2039706;70;20658;-85
2023/07/27 11:26:15;;;;;;;5.32;3.00;;;;;;;20.16;47.14;92587.91;2042351;70;20191;-86
2023/07/27 11:28:40;;;;;;;4.18;3.10;;;;;;;20.39;46.56;92580.56;2044561;70;20186;-86
2023/07/27 11:31:07;;;;;;;4.22;2.88;;;;;;;20.33;47.46;92591.88;2045374;70;20214;-87
2023/07/27 11:33:34;;;;;;;4.50;3.13;;;;;;;19.83;47.95;92592.84;2044691;70;20154;-87
2023/07/27 11:36:00;;;;;;;4.15;3.30;;;;;;;20.38;46.05;92579.84;2044789;70;20170;-87
2023/07/27 11:38:27;;;;;;;4.65;2.88;;;;;;;20.33;44.32;92551.84;2044802;70;20146;-88